GW1429 Weather Reports


time (UTC)temp
C
wind
direction
speed
KPH
gust
KPH
rain 1hr
cm
rain 24hr
cm
rain mn
cm
humidity
%
barometer
mb
20240527184946 35 213 8.0 16.1 0.00 0.00 0.00 53 1047.1
20240527184445 35 106 4.8 8.0 0.00 0.00 0.00 55 1047.0
20240527183944 35 129 11.3 12.9 0.00 0.00 0.00 54 1047.1
20240527183442 34 194 4.8 11.3 0.00 0.00 0.00 59 1047.1
20240527182942 33 92 11.3 17.7 0.00 0.00 0.00 61 1047.3
20240527182441 34 152 4.8 8.0 0.00 0.00 0.00 58 1047.2
20240527181940 34 121 4.8 6.4 0.00 0.00 0.00 56 1047.3
20240527181440 34 90 1.6 8.0 0.00 0.00 0.00 60 1047.1
20240527180938 34 96 11.3 17.7 0.00 0.00 0.00 59 1047.4
20240527180436 34 222 4.8 6.4 0.00 0.00 0.00 57 1047.3
20240527175935 35 117 3.2 4.8 0.00 0.00 0.00 58 1047.6
20240527175433 33 151 9.7 12.9 0.00 0.00 0.00 62 1047.7
20240527174931 33 102 3.2 12.9 0.00 0.00 0.00 60 1047.5
20240527174431 33 120 8.0 11.3 0.00 0.00 0.00 58 1047.4
20240527173929 33 142 9.7 11.3 0.00 0.00 0.00 62 1047.8
20240527173427 33 115 4.8 9.7 0.00 0.00 0.00 63 1047.6
20240527172925 33 120 0.0 11.3 0.00 0.00 0.00 64 1047.6
20240527172423 33 133 4.8 6.4 0.00 0.00 0.00 64 1047.6
20240527171922 32 135 4.8 12.9 0.00 0.00 0.00 66 1047.6
20240527171420 32 270 0.0 8.0 0.00 0.00 0.00 64 1047.9
20240527170920 32 111 9.7 11.3 0.00 0.00 0.00 64 1048.0
20240527170418 33 159 8.0 8.0 0.00 0.00 0.00 64 1047.8
20240527165916 32 180 1.6 8.0 0.00 0.00 0.00 67 1047.9
20240527165414 32 149 8.0 16.1 0.00 0.00 0.00 67 1048.2
20240527164913 32 134 8.0 9.7 0.00 0.00 0.00 67 1048.0
20240527164412 32 73 3.2 11.3 0.00 0.00 0.00 66 1048.2
20240527163912 32 180 3.2 9.7 0.00 0.00 0.00 65 1048.0
20240527163411 32 285 4.8 8.0 0.00 0.00 0.00 65 1048.1
20240527162909 32 31 4.8 16.1 0.00 0.00 0.00 66 1048.2
20240527162407 32 270 0.0 9.7 0.00 0.00 0.00 66 1048.0
20240527161906 33 190 0.0 4.8 0.00 0.00 0.00 64 1048.2
20240527161404 32 315 3.2 4.8 0.00 0.00 0.00 67 1048.0
20240527160903 32 119 3.2 6.4 0.00 0.00 0.00 68 1048.1
20240527160401 32 109 4.8 6.4 0.00 0.00 0.00 68 1048.2
20240527155859 31 6 4.8 9.7 0.00 0.00 0.00 70 1048.0
20240527155359 31 180 0.0 6.4 0.00 0.00 0.00 68 1047.9
20240527154858 32 96 4.8 9.7 0.00 0.00 0.00 67 1047.9
20240527154358 31 154 0.0 3.2 0.00 0.00 0.00 70 1047.9
20240527153857 30 135 3.2 11.3 0.00 0.00 0.00 73 1047.9
20240527153356 31 49 3.2 4.8 0.00 0.00 0.00 71 1047.9
20240527152855 30 141 4.8 9.7 0.00 0.00 0.00 72 1047.6
20240527152353 30 135 3.2 6.4 0.00 0.00 0.00 74 1047.6
20240527151852 31 121 3.2 8.0 0.00 0.00 0.00 71 1047.7
20240527151352 31 185 0.0 6.4 0.00 0.00 0.00 71 1047.5
20240527150850 31 239 3.2 3.2 0.00 0.00 0.00 70 1047.6
20240527150349 31 261 1.6 3.2 0.00 0.00 0.00 71 1047.6
20240527145848 31 108 0.0 6.4 0.00 0.00 0.00 71 1047.6
20240527145346 30 151 0.0 3.2 0.00 0.00 0.00 72 1047.6
20240527144845 30 195 1.6 4.8 0.00 0.00 0.00 74 1047.5
20240527144344 30 90 1.6 3.2 0.00 0.00 0.00 73 1047.5
20240527143844 29 126 0.0 1.6 0.00 0.00 0.00 77 1047.5
20240527143343 28 205 4.8 6.4 0.00 0.00 0.00 80 1047.6
20240527142842 28 261 0.0 3.2 0.00 0.00 0.00 80 1047.3
20240527142340 28 180 4.8 6.4 0.00 0.00 0.00 80 1047.4
20240527141839 28 140 0.0 3.2 0.00 0.00 0.00 82 1047.5
20240527141337 28 273 6.4 6.4 0.00 0.00 0.00 82 1047.2
20240527140836 27 319 0.0 3.2 0.00 0.00 0.00 83 1047.3
20240527140335 27 278 3.2 4.8 0.00 0.00 0.00 85 1047.2
20240527135833 27 279 4.8 6.4 0.00 0.00 0.00 85 1047.4
20240527135332 27 252 3.2 4.8 0.00 0.00 0.00 84 1047.2
20240527134830 27 229 3.2 6.4 0.00 0.00 0.00 85 1047.3
20240527134329 27 220 3.2 6.4 0.00 0.00 0.00 86 1046.9
20240527133828 27 297 0.0 4.8 0.00 0.00 0.00 87 1046.9
20240527133325 27 217 0.0 3.2 0.00 0.00 0.00 86 1046.7
20240527132824 27 295 3.2 3.2 0.00 0.00 0.00 87 1046.7
20240527132322 26 172 0.0 1.6 0.00 0.00 0.00 88 1046.7
20240527131821 26 180 0.0 0.0 0.00 0.00 0.00 89 1046.9
20240527131319 26 166 1.6 3.2 0.00 0.00 0.00 90 1046.8
20240527130819 26 266 4.8 8.0 0.00 0.00 0.00 90 1046.8
20240527130317 26 157 0.0 4.8 0.00 0.00 0.00 90 1046.6
20240527125816 26 84 3.2 4.8 0.00 0.00 0.00 91 1046.4
20240527125313 26 205 4.8 4.8 0.00 0.00 0.00 91 1046.3
20240527124812 26 135 3.2 4.8 0.00 0.00 0.00 91 1046.5
20240527124304 26 152 3.2 6.4 0.00 0.00 0.00 91 1046.3
20240527123803 26 99 3.2 3.2 0.00 0.00 0.00 91 1046.0
20240527123302 25 172 0.0 6.4 0.00 0.00 0.00 92 1045.8
20240527122802 25 225 4.8 8.0 0.00 0.00 0.00 92 1045.7
20240527122301 25 220 4.8 8.0 0.00 0.00 0.00 92 1045.6
20240527121800 25 230 8.0 9.7 0.00 0.00 0.00 92 1045.7
20240527121258 25 206 4.8 8.0 0.00 0.00 0.00 92 1045.4
20240527120757 25 285 4.8 8.0 0.00 0.00 0.00 93 1045.5
20240527120257 25 212 4.8 6.4 0.00 0.00 0.00 93 1045.2
20240527115756 25 222 4.8 8.0 0.00 0.00 0.00 93 1045.2
20240527115255 25 201 4.8 14.5 0.00 0.00 0.00 93 1045.2
20240527114754 25 191 8.0 12.9 0.00 0.00 0.00 93 1045.3
20240527114253 25 188 6.4 11.3 0.00 0.00 0.00 93 1045.2
20240527113751 25 228 6.4 9.7 0.00 0.00 0.00 93 1044.9
20240527113250 25 191 4.8 11.3 0.00 0.00 0.00 94 1044.9
20240527112748 25 240 8.0 11.3 0.00 0.00 0.00 94 1045.1
20240527112248 25 201 3.2 8.0 0.00 0.00 0.00 94 1044.8
20240527111747 25 210 3.2 9.7 0.00 0.00 0.00 94 1044.8
20240527111247 25 215 4.8 8.0 0.00 0.00 0.00 94 1044.6
20240527110745 25 229 4.8 11.3 0.00 0.00 0.00 95 1044.6
20240527110244 25 226 8.0 9.7 0.00 0.00 0.00 95 1044.6
20240527105742 25 162 4.8 6.4 0.00 0.00 0.00 95 1044.4
20240527105239 25 202 6.4 9.7 0.00 0.00 0.00 95 1044.3
20240527104738 25 169 6.4 8.0 0.00 0.00 0.00 95 1044.1
20240527104237 25 236 4.8 8.0 0.00 0.00 0.00 95 1044.3
20240527103736 25 227 4.8 6.4 0.00 0.00 0.00 95 1044.0
20240527103234 25 206 1.6 4.8 0.00 0.00 0.00 95 1044.1
20240527102734 25 216 4.8 11.3 0.00 0.00 0.00 95 1044.0
20240527102232 25 214 3.2 9.7 0.00 0.00 0.00 95 1044.1
20240527101731 25 209 8.0 14.5 0.00 0.00 0.00 95 1044.0
20240527101230 25 200 4.8 12.9 0.00 0.00 0.00 95 1044.2
20240527100729 25 200 4.8 12.9 0.00 0.00 0.00 95 1044.1
20240527100229 25 254 9.7 12.9 0.00 0.00 0.00 96 1044.0
20240527095728 25 218 8.0 9.7 0.00 0.00 0.00 96 1044.1
20240527095225 25 246 4.8 9.7 0.00 0.00 0.00 96 1043.9
20240527094724 25 200 8.0 16.1 0.00 0.00 0.00 96 1043.6
20240527094222 25 220 4.8 19.3 0.00 0.00 0.00 96 1043.7
20240527093721 25 223 9.7 16.1 0.00 0.00 0.00 96 1043.8
20240527093221 25 211 8.0 16.1 0.00 0.00 0.00 95 1043.7
20240527092720 25 208 9.7 14.5 0.00 0.00 0.00 95 1043.6
20240527092220 25 206 4.8 9.7 0.00 0.00 0.00 95 1043.7
20240527091719 25 237 4.8 16.1 0.00 0.00 0.00 95 1043.7
20240527091219 25 202 4.8 11.3 0.00 0.00 0.00 95 1043.5
20240527090717 25 198 1.6 12.9 0.00 0.00 0.00 95 1043.5
20240527090215 25 194 6.4 6.4 0.00 0.00 0.00 95 1043.5
20240527085713 25 226 8.0 8.0 0.00 0.00 0.00 95 1043.5
20240527085212 25 244 4.8 17.7 0.00 0.00 0.00 95 1043.5
20240527084710 25 166 8.0 14.5 0.00 0.00 0.00 95 1043.4
20240527084210 25 223 6.4 17.7 0.00 0.00 0.00 95 1043.2
20240527083708 25 207 4.8 9.7 0.00 0.00 0.00 95 1043.3
20240527083207 25 190 3.2 9.7 0.00 0.00 0.00 95 1043.3
20240527082706 25 223 8.0 12.9 0.00 0.00 0.00 95 1043.2
20240527082205 25 202 8.0 9.7 0.00 0.00 0.00 94 1043.1
20240527081704 25 175 12.9 12.9 0.00 0.00 0.00 94 1043.3
20240527081203 25 223 8.0 8.0 0.00 0.00 0.00 94 1043.2
20240527080702 25 188 3.2 8.0 0.00 0.00 0.00 94 1043.2
20240527080201 25 227 4.8 8.0 0.00 0.00 0.00 94 1043.3
20240527075659 25 195 4.8 4.8 0.00 0.00 0.00 94 1043.3
20240527075159 25 198 0.0 4.8 0.00 0.00 0.00 93 1043.5
20240527074657 25 248 3.2 9.7 0.00 0.00 0.00 93 1043.4
20240527074157 26 164 4.8 8.0 0.00 0.00 0.00 93 1043.1
20240527073656 26 172 6.4 6.4 0.00 0.00 0.00 93 1043.1
20240527073155 26 206 4.8 9.7 0.00 0.00 0.00 92 1043.3
20240527072654 26 200 9.7 11.3 0.00 0.00 0.00 92 1043.1
20240527072153 26 229 3.2 11.3 0.00 0.00 0.00 92 1043.2
20240527071652 26 209 4.8 8.0 0.00 0.00 0.00 92 1043.4
20240527071151 26 221 3.2 8.0 0.00 0.00 0.00 91 1043.4
20240527070649 26 198 8.0 12.9 0.00 0.00 0.00 91 1043.4
20240527070149 26 212 3.2 12.9 0.00 0.00 0.00 91 1043.2
20240527065648 26 206 9.7 12.9 0.00 0.00 0.00 91 1043.4
20240527065147 26 228 3.2 12.9 0.00 0.00 0.00 90 1043.3
20240527064648 26 208 6.4 11.3 0.00 0.00 0.00 90 1043.3
20240527064146 26 164 4.8 12.9 0.00 0.00 0.00 90 1043.2
20240527063645 26 193 8.0 16.1 0.00 0.00 0.00 89 1043.1
20240527063144 26 199 6.4 11.3 0.00 0.00 0.00 89 1042.9
20240527062643 26 202 0.0 9.7 0.00 0.00 0.00 89 1043.1
20240527062142 27 161 8.0 14.5 0.00 0.00 0.00 88 1043.2
20240527061639 27 196 0.0 12.9 0.00 0.00 0.00 88 1043.3
20240527061139 27 166 4.8 11.3 0.00 0.00 0.00 88 1043.0
20240527060638 27 221 0.0 17.7 0.00 0.00 0.00 87 1043.0
20240527060136 27 166 9.7 14.5 0.00 0.00 0.00 87 1043.1
20240527055635 27 180 3.2 12.9 0.00 0.00 0.00 87 1043.2
20240527055135 27 217 9.7 16.1 0.00 0.00 0.00 86 1043.2
20240527054633 27 207 6.4 9.7 0.00 0.00 0.00 86 1043.3
20240527054133 27 170 4.8 11.3 0.00 0.00 0.00 85 1043.2
20240527053631 27 237 6.4 12.9 0.00 0.00 0.00 85 1043.3
20240527053131 27 201 4.8 12.9 0.00 0.00 0.00 85 1043.2
20240527052631 27 202 11.3 11.3 0.00 0.00 0.00 84 1043.0
20240527052130 28 202 4.8 17.7 0.00 0.00 0.00 84 1043.1
20240527051628 28 166 9.7 20.9 0.00 0.00 0.00 84 1043.2
20240527051128 28 210 9.7 17.7 0.00 0.00 0.00 83 1043.3
20240527050627 28 140 8.0 16.1 0.00 0.00 0.00 83 1043.2
20240527050126 28 220 8.0 17.7 0.00 0.00 0.00 83 1043.3
20240527045625 28 221 9.7 17.7 0.00 0.00 0.00 82 1043.3
20240527045123 28 142 8.0 24.1 0.00 0.00 0.00 82 1043.1
20240527044621 28 202 6.4 11.3 0.00 0.00 0.00 82 1043.2
20240527044119 28 192 8.0 19.3 0.00 0.00 0.00 82 1043.1
20240527043617 28 205 9.7 14.5 0.00 0.00 0.00 81 1043.3
20240527043117 28 165 4.8 19.3 0.00 0.00 0.00 81 1043.1
20240527042615 28 178 11.3 17.7 0.00 0.00 0.00 80 1043.2
20240527042115 28 220 8.0 20.9 0.00 0.00 0.00 80 1043.3
20240527041614 29 217 9.7 20.9 0.00 0.00 0.00 79 1043.1
20240527041112 29 164 12.9 19.3 0.00 0.00 0.00 79 1043.2
20240527040610 29 189 8.0 16.1 0.00 0.00 0.00 78 1043.2
20240527040110 29 208 11.3 14.5 0.00 0.00 0.00 77 1042.9
20240527035609 29 187 9.7 12.9 0.00 0.00 0.00 77 1043.0
20240527035108 29 187 9.7 14.5 0.00 0.00 0.00 77 1043.0
20240527034605 29 202 4.8 11.3 0.00 0.00 0.00 77 1043.1
20240527034105 29 180 4.8 8.0 0.00 0.00 0.00 76 1042.9
20240527033603 29 167 4.8 6.4 0.00 0.00 0.00 75 1042.7
20240527033102 29 206 4.8 6.4 0.00 0.00 0.00 75 1042.7
20240527032600 29 204 3.2 6.4 0.00 0.00 0.00 75 1042.7
20240527032100 29 159 3.2 8.0 0.00 0.00 0.00 75 1042.5
20240527031559 29 172 3.2 9.7 0.00 0.00 0.00 74 1042.6
20240527031058 29 180 0.0 1.6 0.00 0.00 0.00 74 1042.5
20240527030557 29 192 1.6 3.2 0.00 0.00 0.00 74 1042.2
20240527030055 29 212 0.0 4.8 0.00 0.00 0.00 75 1042.3
20240527025552 28 180 4.8 6.4 0.00 0.00 0.00 76 1042.1
20240527025050 28 135 3.2 4.8 0.00 0.00 0.00 76 1042.2
20240527024550 28 128 6.4 6.4 0.00 0.00 0.00 77 1042.2
20240527024049 29 192 0.0 3.2 0.00 0.00 0.00 73 1042.2
20240527023548 30 174 1.6 3.2 0.00 0.00 0.00 71 1042.1
20240527023047 30 203 1.6 3.2 0.00 0.00 0.00 71 1042.1
20240527022546 30 172 1.6 4.8 0.00 0.00 0.00 72 1041.9
20240527022047 29 180 0.0 3.2 0.00 0.00 0.00 73 1041.8
20240527021546 30 180 0.0 1.6 0.00 0.00 0.00 71 1041.8
20240527021046 30 168 0.0 3.2 0.00 0.00 0.00 69 1041.6
20240527020544 30 172 0.0 1.6 0.00 0.00 0.00 68 1041.4
20240527020043 30 172 0.0 1.6 0.00 0.00 0.00 68 1041.7
20240527015543 31 165 0.0 1.6 0.00 0.00 0.00 67 1041.7
20240527015041 31 151 3.2 3.2 0.00 0.00 0.00 67 1041.5
20240527014541 31 114 1.6 3.2 0.00 0.00 0.00 66 1041.3
20240527014040 31 160 1.6 3.2 0.00 0.00 0.00 66 1041.3
20240527013540 31 172 0.0 3.2 0.00 0.00 0.00 65 1041.2
20240527013040 31 225 4.8 6.4 0.00 0.00 0.00 65 1041.2
20240527012539 31 135 4.8 8.0 0.00 0.00 0.00 64 1041.1
20240527012038 31 150 8.0 8.0 0.00 0.00 0.00 64 1041.0
20240527011536 32 138 4.8 6.4 0.00 0.00 0.00 63 1040.9
20240527011035 32 180 4.8 8.0 0.00 0.00 0.00 63 1040.8
20240527010534 32 151 3.2 8.0 0.00 0.00 0.00 62 1040.6
20240527010033 32 202 4.8 8.0 0.00 0.00 0.00 62 1040.5
20240527005533 32 245 0.0 4.8 0.00 0.00 0.00 61 1040.6
20240527005032 32 193 4.8 12.9 0.00 0.00 0.00 61 1040.8
20240527004531 32 195 1.6 8.0 0.00 0.00 0.00 61 1040.4
20240527004030 33 180 8.0 8.0 0.00 0.00 0.00 60 1040.4
20240527003530 33 175 4.8 8.0 0.00 0.00 0.00 59 1040.4
20240527003030 33 184 3.2 12.9 0.00 0.00 0.00 59 1040.2
20240527002530 33 233 0.0 9.7 0.00 0.00 0.00 59 1040.2
20240527002028 33 198 6.4 12.9 0.00 0.00 0.00 58 1040.2
20240527001528 33 174 1.6 8.0 0.00 0.00 0.00 57 1040.1
20240527001029 34 174 1.6 8.0 0.00 0.00 0.00 56 1040.4
20240527000528 33 166 1.6 17.7 0.00 0.00 0.00 57 1040.1
20240527000027 34 192 1.6 8.0 0.00 0.00 0.00 57 1040.0
20240526235527 34 197 3.2 6.4 0.00 0.00 0.00 56 1040.2
20240526235026 35 197 4.8 4.8 0.00 0.00 0.00 54 1040.3
20240526234525 35 180 4.8 6.4 0.00 0.00 0.00 54 1040.2
20240526234025 35 134 6.4 6.4 0.00 0.00 0.00 54 1040.3
20240526233524 35 138 4.8 6.4 0.00 0.00 0.00 52 1039.9
20240526233024 35 182 6.4 6.4 0.00 0.00 0.00 48 1040.1
20240526232523 35 225 3.2 6.4 0.00 0.00 0.00 49 1040.3
20240526232022 35 225 4.8 8.0 0.00 0.00 0.00 49 1040.4
20240526231521 35 226 6.4 8.0 0.00 0.00 0.00 47 1040.3
20240526231020 35 220 4.8 6.4 0.00 0.00 0.00 48 1040.8
20240526230518 35 240 4.8 8.0 0.00 0.00 0.00 48 1040.6
20240526230018 35 202 3.2 6.4 0.00 0.00 0.00 49 1040.4
20240526225518 35 219 4.8 9.7 0.00 0.00 0.00 49 1040.6
20240526225017 35 180 0.0 8.0 0.00 0.00 0.00 49 1040.3
20240526224516 35 244 9.7 9.7 0.00 0.00 0.00 50 1040.4
20240526224016 35 162 4.8 9.7 0.00 0.00 0.00 52 1040.4
20240526223516 35 225 6.4 8.0 0.00 0.00 0.00 51 1040.4
20240526223015 36 221 3.2 6.4 0.00 0.00 0.00 50 1040.3
20240526222513 34 199 3.2 8.0 0.00 0.00 0.00 53 1040.3
20240526222011 34 223 8.0 14.5 0.00 0.00 0.00 53 1040.5
20240526221510 34 146 4.8 11.3 0.00 0.00 0.00 53 1040.3
20240526221009 35 165 4.8 6.4 0.00 0.00 0.00 54 1040.4
20240526220508 35 145 6.4 11.3 0.00 0.00 0.00 56 1040.2
20240526220008 35 221 6.4 12.9 0.00 0.00 0.00 56 1040.6
20240526215507 35 146 12.9 12.9 0.00 0.00 0.00 56 1040.4
20240526215005 34 220 4.8 11.3 0.00 0.00 0.00 58 1040.5
20240526214505 34 250 4.8 12.9 0.00 0.00 0.00 58 1040.5
20240526214004 34 216 4.8 17.7 0.00 0.00 0.00 58 1040.5
20240526213503 34 246 9.7 11.3 0.00 0.00 0.00 57 1040.5
20240526213001 34 194 6.4 11.3 0.00 0.00 0.00 58 1040.5
20240526212501 33 212 4.8 11.3 0.00 0.00 0.00 61 1040.9
20240526212000 34 115 3.2 14.5 0.00 0.00 0.00 59 1040.4
20240526211459 34 222 4.8 12.9 0.00 0.00 0.00 59 1040.9
20240526210933 34 238 6.4 9.7 0.00 0.00 0.00 59 1040.8
20240526210431 34 199 4.8 6.4 0.00 0.00 0.00 58 1041.1
20240526205930 35 264 4.8 11.3 0.00 0.00 0.00 56 1041.0
20240526205430 34 241 11.3 14.5 0.00 0.00 0.00 56 1041.1
20240526204928 33 167 8.0 12.9 0.00 0.00 0.00 62 1041.0
20240526204428 33 234 6.4 12.9 0.00 0.00 0.00 63 1041.2
20240526203928 33 204 8.0 17.7 0.00 0.00 0.00 64 1041.1
20240526203427 33 210 11.3 11.3 0.00 0.00 0.00 63 1041.4
20240526202926 32 235 12.9 14.5 0.00 0.00 0.00 66 1041.3
20240526202425 32 198 3.2 11.3 0.00 0.00 0.00 65 1041.4
20240526201923 32 196 4.8 14.5 0.00 0.00 0.00 68 1041.3
20240526201422 32 185 9.7 14.5 0.00 0.00 0.00 65 1041.2
20240526200921 32 157 8.0 9.7 0.00 0.00 0.00 68 1041.5
20240526200420 32 225 0.0 14.5 0.00 0.00 0.00 68 1041.4
20240526195919 32 196 8.0 11.3 0.00 0.00 0.00 67 1041.4
20240526195418 32 205 8.0 17.7 0.00 0.00 0.00 68 1041.6
20240526194916 31 225 14.5 14.5 0.00 0.00 0.00 70 1041.7
20240526194416 31 241 11.3 20.9 0.00 0.00 0.00 70 1041.9
20240526193915 32 329 17.7 17.7 0.00 0.00 0.00 68 1041.9
20240526193415 32 226 11.3 17.7 0.00 0.00 0.00 69 1042.0
20240526192913 31 253 6.4 16.1 0.00 0.00 0.00 71 1041.9
20240526192412 31 223 6.4 11.3 0.00 0.00 0.00 72 1041.8
20240526191911 31 228 11.3 20.9 0.00 0.00 0.00 73 1042.1
20240526191411 31 230 14.5 16.1 0.00 0.00 0.00 73 1042.0
20240526190910 31 202 6.4 14.5 0.00 0.00 0.00 71 1042.1
20240526190411 31 223 11.3 20.9 0.00 0.00 0.00 74 1042.1
20240526185910 31 223 11.3 14.5 0.00 0.00 0.00 74 1042.1
20240526185408 30 180 3.2 19.3 0.00 0.00 0.00 75 1042.2